LiveATC.Net - Listen to live air traffic control over the Internet! Contact LiveATC.net for advertising information


ICAO: SBBE  IATA: BEL   Airport: Val de Cans International Airport
City: Belem
Country: Brazil   Continent: South America
SBBE METAR Weather: SBBE 300500Z 05003KT CAVOK 24/23 Q1012
SBBE Flight Activity (FlightAware)
SBBE Twr/App/SBAZ
Feed Status: DOWN
Last heard on: 2014-09-25 21:18:03 (4 days 8 hours 42 minutes ago)
SBBE Twr/App/SBAZ Audio Archives
FacilityFrequency
Amazonica FIR (SBAZ)123.950
Amazonica FIR (SBAZ)126.150
Amazonica FIR (SBAZ)126.500
Amazonica FIR (SBAZ)126.650
Amazonica FIR (SBAZ)128.000
Amazonica FIR (SBAZ)133.700
Belem Approach119.050
Belem Approach119.500
Belem Tower118.700


NOTICE

Unauthorized use prohibited. See LiveATC.net Terms of Service


Find LiveATC Audio Streams


Airport/ARTCC Code

Frequency
(e.g., 124.400, 128.75)
Site-wide search

Browse LiveATC Feeds
LiveATC Coverage Map
Top 50 LiveATC Feeds
Bad Weather Areas

LiveATC FAQ
Offer a LiveATC Feed
Contact LiveATC.net
Press Inquiries

LiveATC on iPhone
LiveATC on Android

LiveATC Mobile
(Mobile browser)

ATC Audio Archives
Interesting Recordings

LiveATC Forums


Home Page
About LiveATC.net
Make a Donation
LiveATC Bookstore

Terms of Use
Privacy Policy

ATC/Radar Sites
U.S. ARTCC Freqs
Canadian Air Freqs

AIRMETs/SIGMETs

FAA Airport Status
Nat'l Airspace Status
Arrival Demand Charts


Server Software By:
Icecast.org
Liquidsoap

Please make a donation to help us keep growing!